Time;durP1;ratioP1;P1;durP2;ratioP2;P2;SDS_P1;SDS_P2;PMS_P1;PMS_P2;Temp;Humidity;BMP_temperature;BMP_pressure;BME280_temperature;BME280_humidity;BME280_pressure;Samples;Min_cycle;Max_cycle;Signal;HPM_P1;HPM_P2
2022/05/17 00:00:55;;;;;;;10.32;4.40;;;24.40;47.90;;;;;;7712133;23;20009;-68
2022/05/17 00:03:57;;;;;;;14.05;4.05;;;24.30;48.00;;;;;;7711595;23;20032;-68
2022/05/17 00:06:59;;;;;;;11.25;4.00;;;24.30;48.00;;;;;;7685825;23;20008;-68
2022/05/17 00:10:00;;;;;;;6.60;3.95;;;24.30;48.20;;;;;;7712024;23;20120;-68
2022/05/17 00:13:01;;;;;;;6.38;3.65;;;24.30;48.30;;;;;;7685278;23;20363;-69
2022/05/17 00:16:03;;;;;;;12.07;3.92;;;24.20;48.30;;;;;;7712081;23;20103;-69
2022/05/17 00:19:04;;;;;;;6.65;3.33;;;24.20;48.40;;;;;;7685268;23;20408;-68
2022/05/17 00:22:05;;;;;;;9.45;3.17;;;24.20;48.50;;;;;;7685601;23;20017;-69
2022/05/17 00:25:07;;;;;;;11.13;3.47;;;24.10;48.50;;;;;;7711735;23;20017;-68
2022/05/17 00:28:09;;;;;;;9.60;3.38;;;24.10;48.50;;;;;;7685398;23;20040;-69
2022/05/17 00:31:10;;;;;;;11.57;3.45;;;24.10;48.50;;;;;;7685668;23;20047;-69
2022/05/17 00:34:12;;;;;;;12.90;3.58;;;24.10;48.50;;;;;;7660529;23;20027;-68
2022/05/17 00:37:14;;;;;;;9.98;4.03;;;24.10;48.60;;;;;;7685635;23;20091;-69
2022/05/17 00:40:16;;;;;;;14.60;3.83;;;24.00;48.50;;;;;;7685378;23;20344;-69
2022/05/17 00:47:08;;;;;;;12.13;3.80;;;24.00;48.50;;;;;;7709910;23;20017;-68
2022/05/17 00:50:14;;;;;;;9.18;3.80;;;24.00;48.50;;;;;;7709865;23;20110;-68
2022/05/17 00:53:42;;;;;;;7.47;3.70;;;24.00;48.50;;;;;;7683081;23;20024;-68
2022/05/17 00:56:57;;;;;;;7.28;3.45;;;23.90;48.70;;;;;;7676479;23;20095;-68
2022/05/17 01:00:04;;;;;;;9.82;3.42;;;23.90;48.80;;;;;;7684533;23;20468;-68
2022/05/17 01:03:09;;;;;;;9.93;3.35;;;23.90;48.90;;;;;;7711939;23;20051;-69
2022/05/17 01:06:11;;;;;;;9.82;3.67;;;23.90;49.10;;;;;;7712303;23;20023;-68
2022/05/17 01:09:12;;;;;;;16.70;3.92;;;23.90;49.20;;;;;;7711302;23;20309;-68
2022/05/17 01:12:13;;;;;;;5.50;3.33;;;23.90;49.30;;;;;;7661007;23;20013;-69
2022/05/17 01:15:15;;;;;;;6.05;3.38;;;23.80;49.30;;;;;;7685232;23;20024;-68
2022/05/17 01:18:16;;;;;;;7.70;3.53;;;23.80;49.20;;;;;;7659931;23;20132;-68
2022/05/17 01:21:18;;;;;;;11.73;3.78;;;23.80;49.40;;;;;;7685746;23;20324;-68
2022/05/17 01:24:19;;;;;;;10.48;3.78;;;23.80;49.50;;;;;;7687153;23;20016;-68
2022/05/17 01:27:20;;;;;;;7.20;4.15;;;23.70;49.40;;;;;;7687457;23;20063;-68
2022/05/17 01:30:25;;;;;;;17.60;4.07;;;23.80;49.60;;;;;;7713898;23;20013;-68
2022/05/17 01:33:26;;;;;;;6.18;3.88;;;23.70;49.70;;;;;;7687080;23;20016;-69
2022/05/17 01:36:27;;;;;;;7.30;3.97;;;23.70;49.80;;;;;;7662491;23;20070;-68
2022/05/17 01:39:29;;;;;;;12.32;3.55;;;23.70;50.00;;;;;;7687833;23;20111;-68
2022/05/17 01:42:30;;;;;;;5.07;3.50;;;23.60;50.00;;;;;;7687346;23;20009;-69
2022/05/17 01:45:31;;;;;;;9.52;3.90;;;23.60;50.20;;;;;;7687168;23;20019;-68
2022/05/17 01:48:32;;;;;;;6.03;3.28;;;23.60;50.80;;;;;;7686918;23;20024;-68
2022/05/17 01:51:33;;;;;;;6.38;3.83;;;23.50;50.20;;;;;;7662124;23;20023;-68
2022/05/17 01:54:34;;;;;;;10.25;4.22;;;23.50;50.30;;;;;;7713063;23;20150;-68
2022/05/17 01:57:36;;;;;;;8.27;4.68;;;23.50;50.30;;;;;;7686968;23;20009;-69
2022/05/17 02:00:37;;;;;;;11.20;4.30;;;23.50;50.30;;;;;;7687497;23;20013;-68
2022/05/17 02:03:38;;;;;;;6.38;3.92;;;23.50;50.30;;;;;;7713222;23;20092;-68
2022/05/17 02:06:40;;;;;;;11.48;3.95;;;23.50;50.30;;;;;;7687132;23;20353;-69
2022/05/17 02:09:41;;;;;;;9.32;3.80;;;23.50;50.20;;;;;;7662025;23;20087;-68
2022/05/17 02:12:42;;;;;;;10.05;3.65;;;23.50;50.30;;;;;;7686526;23;20021;-68
2022/05/17 02:15:43;;;;;;;7.63;3.97;;;23.50;50.30;;;;;;7713150;23;20072;-69
2022/05/17 02:18:44;;;;;;;8.95;4.00;;;23.40;50.10;;;;;;7712496;23;20029;-68
2022/05/17 02:21:47;;;;;;;11.18;3.83;;;23.40;50.10;;;;;;7687586;23;20017;-68
2022/05/17 02:24:48;;;;;;;7.82;3.45;;;23.40;50.10;;;;;;7687170;23;20346;-68
2022/05/17 02:27:48;;;;;;;8.73;3.85;;;23.40;50.10;;;;;;7686576;23;20020;-68
2022/05/17 02:30:50;;;;;;;8.45;3.95;;;23.40;50.10;;;;;;7686936;23;20016;-68
2022/05/17 02:33:50;;;;;;;7.10;4.03;;;23.40;50.10;;;;;;7686657;23;20009;-68
2022/05/17 02:36:51;;;;;;;9.80;3.83;;;23.30;50.20;;;;;;7713003;23;20074;-68
2022/05/17 02:39:53;;;;;;;7.85;4.13;;;23.30;50.30;;;;;;7687249;23;20012;-70
2022/05/17 02:42:54;;;;;;;5.97;3.72;;;23.30;51.10;;;;;;7713075;23;20092;-68
2022/05/17 02:45:54;;;;;;;9.88;3.92;;;23.20;50.60;;;;;;7686810;23;20426;-68
2022/05/17 02:48:55;;;;;;;9.10;4.20;;;23.20;50.60;;;;;;7711661;23;20020;-68
2022/05/17 02:52:01;;;;;;;6.57;3.55;;;23.10;50.70;;;;;;7713085;23;20012;-69
2022/05/17 02:55:03;;;;;;;13.65;4.25;;;23.10;50.80;;;;;;7712424;23;20373;-68
2022/05/17 02:58:04;;;;;;;11.63;3.90;;;23.10;50.90;;;;;;7686962;23;20116;-68
2022/05/17 03:01:06;;;;;;;9.40;3.38;;;23.10;51.00;;;;;;7685946;23;20016;-68
2022/05/17 03:04:07;;;;;;;13.10;4.47;;;23.00;51.10;;;;;;7685682;23;20016;-68
2022/05/17 03:07:08;;;;;;;8.27;3.75;;;23.00;51.20;;;;;;7686217;23;20016;-68
2022/05/17 03:10:11;;;;;;;11.70;4.10;;;23.00;51.30;;;;;;7685456;23;20368;-68
2022/05/17 03:13:13;;;;;;;7.60;4.20;;;23.00;51.40;;;;;;7711869;23;20027;-68
2022/05/17 03:16:15;;;;;;;7.82;3.92;;;23.00;51.50;;;;;;7687719;23;20103;-68
2022/05/17 03:19:17;;;;;;;5.97;3.55;;;22.90;51.60;;;;;;7687820;23;20427;-69
2022/05/17 03:22:18;;;;;;;9.43;3.75;;;22.90;51.70;;;;;;7714041;23;20017;-68
2022/05/17 03:25:19;;;;;;;10.45;4.20;;;22.90;51.70;;;;;;7713891;23;20079;-68
2022/05/17 03:28:20;;;;;;;8.98;3.90;;;22.80;51.70;;;;;;7687586;23;20028;-68
2022/05/17 03:31:22;;;;;;;7.93;4.28;;;22.80;51.70;;;;;;7714109;23;20305;-68
2022/05/17 03:34:23;;;;;;;7.60;3.85;;;22.80;51.80;;;;;;7687030;23;20028;-67
2022/05/17 03:37:24;;;;;;;10.10;3.70;;;22.70;51.90;;;;;;7686969;23;20047;-69
2022/05/17 03:40:27;;;;;;;10.65;4.75;;;22.70;52.00;;;;;;7713588;23;20017;-69
2022/05/17 03:43:28;;;;;;;8.02;4.15;;;22.70;52.10;;;;;;7663320;23;20094;-69
2022/05/17 03:46:29;;;;;;;14.43;5.13;;;22.60;52.20;;;;;;7715220;23;20352;-69
2022/05/17 03:49:30;;;;;;;8.88;4.13;;;22.60;52.20;;;;;;7688692;23;20096;-69
2022/05/17 03:52:32;;;;;;;12.77;4.75;;;22.50;52.40;;;;;;7664046;23;20440;-69
2022/05/17 03:55:33;;;;;;;13.15;4.05;;;22.50;52.70;;;;;;7689227;23;20021;-70
2022/05/17 03:58:33;;;;;;;11.52;4.93;;;22.50;53.00;;;;;;7689251;23;20490;-69
2022/05/17 04:01:34;;;;;;;12.93;4.43;;;22.50;53.20;;;;;;7688644;23;20323;-69
2022/05/17 04:04:35;;;;;;;11.38;4.38;;;22.50;53.20;;;;;;7688699;23;20020;-69
2022/05/17 04:07:38;;;;;;;10.10;4.55;;;22.40;53.30;;;;;;7714844;23;20021;-69
2022/05/17 04:10:39;;;;;;;8.43;4.60;;;22.40;53.50;;;;;;7715336;23;20023;-69
2022/05/17 04:13:39;;;;;;;10.57;4.60;;;22.40;53.80;;;;;;7715266;23;20012;-69
2022/05/17 04:16:40;;;;;;;11.65;4.63;;;22.40;54.20;;;;;;7715051;23;20016;-69
2022/05/17 04:19:41;;;;;;;12.10;4.47;;;22.40;54.40;;;;;;7687875;23;20025;-69
2022/05/17 04:22:47;;;;;;;8.77;4.43;;;22.30;54.40;;;;;;7663724;23;20016;-69
2022/05/17 04:25:47;;;;;;;8.20;4.53;;;22.30;54.60;;;;;;7664402;23;20029;-69
2022/05/17 04:28:48;;;;;;;10.27;4.60;;;22.30;54.60;;;;;;7688456;23;20103;-69
2022/05/17 04:31:50;;;;;;;7.90;4.63;;;22.30;54.60;;;;;;7688118;23;20021;-69
2022/05/17 04:34:51;;;;;;;12.27;4.30;;;22.30;54.50;;;;;;7688233;23;20024;-69
2022/05/17 04:37:52;;;;;;;8.93;4.25;;;22.40;55.10;;;;;;7691430;23;20073;-69
2022/05/17 04:40:53;;;;;;;6.93;3.83;;;22.30;54.60;;;;;;7717003;23;20039;-71
2022/05/17 04:43:54;;;;;;;16.42;4.57;;;22.30;54.70;;;;;;7717621;23;20023;-69
2022/05/17 04:46:55;;;;;;;10.55;4.22;;;22.30;54.70;;;;;;7691050;23;20009;-69
2022/05/17 04:49:56;;;;;;;12.05;4.30;;;22.30;54.70;;;;;;7717308;23;20462;-69
2022/05/17 04:52:57;;;;;;;6.85;4.35;;;22.30;54.60;;;;;;7690988;23;20016;-69
2022/05/17 04:55:58;;;;;;;11.90;5.05;;;22.30;54.50;;;;;;7690877;23;20328;-69
2022/05/17 04:58:59;;;;;;;8.88;4.63;;;22.40;54.60;;;;;;7690816;23;20020;-69
2022/05/17 05:01:59;;;;;;;11.63;4.88;;;22.40;55.10;;;;;;7716675;23;20495;-69
2022/05/17 05:05:00;;;;;;;11.68;4.68;;;22.40;54.40;;;;;;7716806;23;20289;-69
2022/05/17 05:08:01;;;;;;;24.67;5.22;;;22.50;54.60;;;;;;7689749;23;20289;-69
2022/05/17 05:11:02;;;;;;;24.55;6.57;;;22.50;54.60;;;;;;7716798;23;20100;-69
2022/05/17 05:14:05;;;;;;;8.25;4.97;;;22.40;54.60;;;;;;7716064;23;20257;-69
2022/05/17 05:17:06;;;;;;;15.02;4.88;;;22.50;54.80;;;;;;7715925;23;20071;-69
2022/05/17 05:20:10;;;;;;;17.20;4.68;;;22.50;54.70;;;;;;7689899;23;20020;-69
2022/05/17 05:23:11;;;;;;;9.35;4.38;;;22.50;54.60;;;;;;7665593;23;20067;-69
2022/05/17 05:26:14;;;;;;;11.18;4.57;;;22.50;54.50;;;;;;7717112;23;20016;-68
2022/05/17 05:29:16;;;;;;;11.60;4.80;;;22.50;54.90;;;;;;7689873;23;20028;-69
2022/05/17 05:32:17;;;;;;;9.40;5.05;;;22.50;54.60;;;;;;7689926;23;20017;-68
2022/05/17 05:35:20;;;;;;;7.55;4.70;;;22.50;54.60;;;;;;7716644;23;20067;-68
2022/05/17 05:38:21;;;;;;;8.65;4.72;;;22.50;54.70;;;;;;7690357;23;20019;-68
2022/05/17 05:41:22;;;;;;;9.02;4.45;;;22.50;54.70;;;;;;7689248;23;20016;-68
2022/05/17 05:44:23;;;;;;;9.55;4.65;;;22.50;54.80;;;;;;7714772;23;20017;-70
2022/05/17 05:47:24;;;;;;;8.25;4.70;;;22.50;54.80;;;;;;7689393;23;20043;-69
2022/05/17 05:50:25;;;;;;;13.35;5.30;;;22.50;54.60;;;;;;7689227;23;20017;-69
2022/05/17 05:53:26;;;;;;;7.72;4.65;;;22.60;54.60;;;;;;7689880;23;20119;-69
2022/05/17 05:56:27;;;;;;;8.70;4.50;;;22.70;54.40;;;;;;7715518;23;20012;-69
2022/05/17 05:59:29;;;;;;;9.88;4.30;;;22.60;54.20;;;;;;7690136;23;20024;-69
2022/05/17 06:02:30;;;;;;;11.98;4.38;;;22.60;54.20;;;;;;7688978;23;20044;-69
2022/05/17 06:05:31;;;;;;;10.45;4.00;;;22.70;54.10;;;;;;7689204;23;20124;-69
2022/05/17 06:08:34;;;;;;;9.75;4.47;;;22.70;54.00;;;;;;7715020;23;20099;-70
2022/05/17 06:11:36;;;;;;;10.80;4.90;;;22.80;53.80;;;;;;7715185;23;20016;-69
2022/05/17 06:14:37;;;;;;;6.10;3.80;;;22.90;53.70;;;;;;7715170;23;20463;-69
2022/05/17 06:17:39;;;;;;;12.80;4.22;;;22.90;53.60;;;;;;7688652;23;20017;-70
2022/05/17 06:20:40;;;;;;;11.32;4.47;;;23.00;53.40;;;;;;7715172;23;20035;-69
2022/05/17 06:23:42;;;;;;;12.35;4.18;;;23.10;53.20;;;;;;7715494;23;20043;-70
2022/05/17 06:26:43;;;;;;;12.90;4.40;;;23.20;53.10;;;;;;7715454;23;20081;-70
2022/05/17 06:29:44;;;;;;;10.73;5.25;;;23.30;53.00;;;;;;7715231;23;20024;-68
2022/05/17 06:32:45;;;;;;;11.75;4.50;;;23.30;53.00;;;;;;7688461;23;20039;-68
2022/05/17 06:35:48;;;;;;;11.68;4.40;;;23.40;52.80;;;;;;7715419;23;20095;-68
2022/05/17 06:38:51;;;;;;;9.68;4.45;;;23.50;52.70;;;;;;7664749;23;20025;-69
2022/05/17 06:41:55;;;;;;;11.43;4.53;;;23.70;52.30;;;;;;7688606;23;20332;-68
2022/05/17 06:44:57;;;;;;;15.80;4.10;;;23.80;52.10;;;;;;7689201;23;20079;-69
2022/05/17 06:48:00;;;;;;;9.75;4.50;;;23.90;51.80;;;;;;7664506;23;20021;-69
2022/05/17 06:51:07;;;;;;;13.82;4.50;;;24.00;51.50;;;;;;7688276;23;20443;-69
2022/05/17 06:54:08;;;;;;;14.50;4.53;;;24.10;51.30;;;;;;7714786;23;20075;-69
2022/05/17 06:57:14;;;;;;;10.65;4.55;;;24.20;51.10;;;;;;7663208;23;20013;-68
2022/05/17 07:00:15;;;;;;;13.50;4.78;;;24.30;51.00;;;;;;7688341;23;20020;-68
2022/05/17 07:03:17;;;;;;;7.65;4.00;;;24.30;50.70;;;;;;7687948;23;20024;-68
2022/05/17 07:06:18;;;;;;;13.82;4.65;;;24.40;50.60;;;;;;7714786;23;20074;-68
2022/05/17 07:09:22;;;;;;;8.13;4.25;;;24.50;50.40;;;;;;7713957;23;20024;-68
2022/05/17 07:15:45;;;;;;;10.50;4.10;;;24.70;50.00;;;;;;7714755;23;20016;-69
2022/05/17 07:18:47;;;;;;;11.20;4.80;;;24.80;49.70;;;;;;7714490;23;20035;-69
2022/05/17 07:21:48;;;;;;;11.35;4.78;;;24.90;49.40;;;;;;7687854;23;20310;-72
2022/05/17 07:24:49;;;;;;;7.95;3.55;;;24.90;49.00;;;;;;7714434;23;20092;-68
2022/05/17 07:27:50;;;;;;;12.10;4.78;;;25.00;49.00;;;;;;7714142;23;20097;-68
2022/05/17 07:30:51;;;;;;;15.65;4.57;;;25.00;49.00;;;;;;7714708;23;20004;-68
2022/05/17 07:33:52;;;;;;;14.23;4.78;;;25.10;49.00;;;;;;7688042;23;20076;-70
2022/05/17 07:36:54;;;;;;;10.57;4.18;;;25.20;48.90;;;;;;7663652;23;20015;-70
2022/05/17 07:39:54;;;;;;;12.13;4.50;;;25.30;48.60;;;;;;7688011;23;20020;-70
2022/05/17 07:42:56;;;;;;;12.43;5.00;;;25.30;48.20;;;;;;7687779;23;20008;-70
2022/05/17 07:45:57;;;;;;;17.42;5.40;;;25.50;48.20;;;;;;7687681;23;20016;-68
2022/05/17 07:48:58;;;;;;;10.48;4.20;;;25.60;47.80;;;;;;7662824;23;20013;-69
2022/05/17 07:52:00;;;;;;;12.93;4.07;;;25.70;47.20;;;;;;7712230;23;20016;-69
2022/05/17 07:55:01;;;;;;;11.63;4.35;;;25.80;46.90;;;;;;7662399;23;20324;-68
2022/05/17 07:58:05;;;;;;;12.65;4.53;;;25.90;46.60;;;;;;7687464;23;20012;-69
2022/05/17 08:01:05;;;;;;;8.65;4.15;;;26.10;46.10;;;;;;7687629;23;20009;-69
2022/05/17 08:04:07;;;;;;;14.25;4.38;;;26.10;45.90;;;;;;7713585;23;20013;-69
2022/05/17 08:07:08;;;;;;;16.55;4.53;;;26.30;45.70;;;;;;7686354;23;20029;-68
2022/05/17 08:10:09;;;;;;;12.45;3.72;;;26.40;45.10;;;;;;7713149;23;20016;-69
2022/05/17 08:13:10;;;;;;;7.30;3.35;;;26.50;45.00;;;;;;7690367;23;20268;-68
2022/05/17 08:16:11;;;;;;;13.00;4.22;;;26.60;44.70;;;;;;7716528;23;20013;-70
2022/05/17 08:19:12;;;;;;;13.77;5.03;;;26.70;44.40;;;;;;7716416;23;20020;-68
2022/05/17 08:22:14;;;;;;;10.32;4.88;;;26.80;44.10;;;;;;7689882;23;20088;-68
2022/05/17 08:28:38;;;;;;;14.23;3.80;;;27.00;43.90;;;;;;7713609;23;20024;-69
2022/05/17 08:31:39;;;;;;;6.72;3.40;;;27.20;43.50;;;;;;7688155;23;20027;-69
2022/05/17 08:34:41;;;;;;;10.30;4.10;;;27.30;43.10;;;;;;7714548;23;20031;-69
2022/05/17 08:37:42;;;;;;;13.32;3.63;;;27.40;42.60;;;;;;7688510;23;20158;-69
2022/05/17 08:41:17;;;;;;;10.77;3.78;;;27.50;42.20;;;;;;7688481;23;20404;-69
2022/05/17 08:44:32;;;;;;;10.50;4.30;;;27.50;42.00;;;;;;7696789;23;20431;-69
2022/05/17 08:47:43;;;;;;;8.75;3.13;;;27.50;41.80;;;;;;7644762;23;20040;-69
2022/05/17 08:50:47;;;;;;;10.10;3.92;;;27.60;41.60;;;;;;7683103;23;20082;-70
2022/05/17 08:53:48;;;;;;;9.60;4.45;;;27.60;41.60;;;;;;7710718;23;20083;-70
2022/05/17 08:56:56;;;;;;;10.07;3.90;;;27.70;41.20;;;;;;7684015;23;20009;-69
2022/05/17 09:00:16;;;;;;;11.60;3.70;;;27.80;40.60;;;;;;7710826;23;20008;-68
2022/05/17 09:03:45;;;;;;;7.32;3.97;;;27.80;40.30;;;;;;7710948;23;20344;-68
2022/05/17 09:07:03;;;;;;;16.05;3.50;;;27.90;40.10;;;;;;7696940;23;20108;-68
2022/05/17 09:10:07;;;;;;;;;;;28.10;39.60;;;;;;7683770;23;20344;-68
2022/05/17 09:13:27;;;;;;;9.18;3.42;;;28.20;39.00;;;;;;7683725;23;19907;-68
2022/05/17 09:16:32;;;;;;;12.18;4.88;;;28.30;38.60;;;;;;7710896;23;20020;-69
2022/05/17 09:19:34;;;;;;;14.77;4.95;;;28.40;38.40;;;;;;7710099;23;20020;-69
2022/05/17 09:22:35;;;;;;;12.95;4.68;;;28.50;38.30;;;;;;7710710;23;20359;-69
2022/05/17 09:25:58;;;;;;;15.35;4.90;;;28.70;38.20;;;;;;7711267;23;20012;-69
2022/05/17 09:29:39;;;;;;;10.77;5.07;;;28.80;38.20;;;;;;7710345;23;20026;-70
2022/05/17 09:32:44;;;;;;;18.45;5.80;;;29.00;37.90;;;;;;7676244;23;20591;-70
2022/05/17 09:35:56;;;;;;;14.15;6.35;;;29.10;37.20;;;;;;7682253;23;20012;-69
2022/05/17 09:39:00;;;;;;;8.18;3.33;;;29.10;37.20;;;;;;7709080;23;20024;-68
2022/05/17 09:42:07;;;;;;;11.93;3.35;;;29.20;36.80;;;;;;7708919;23;20013;-69
2022/05/17 09:45:16;;;;;;;27.55;7.07;;;29.30;36.50;;;;;;7681674;23;20067;-69
2022/05/17 09:52:32;;;;;;;8.95;3.50;;;29.40;36.50;;;;;;7655714;23;20055;-70
2022/05/17 09:55:30;;;;;;;15.57;3.78;;;29.60;36.50;;;;;;7682158;23;20323;-68
2022/05/17 09:58:38;;;;;;;7.68;3.58;;;29.70;36.50;;;;;;7682481;23;20092;-68
2022/05/17 10:01:39;;;;;;;7.13;3.67;;;29.70;36.30;;;;;;7709125;23;20023;-69
2022/05/17 10:04:42;;;;;;;5.80;3.03;;;29.90;36.40;;;;;;7682902;23;20280;-69
2022/05/17 10:07:55;;;;;;;10.60;3.60;;;29.90;36.20;;;;;;7683835;23;20020;-69
2022/05/17 10:11:14;;;;;;;10.68;2.80;;;30.00;35.90;;;;;;7684052;23;20012;-69
2022/05/17 10:14:18;;;;;;;;;;;30.00;35.60;;;;;;7684843;23;20020;-68
2022/05/17 10:17:19;;;;;;;17.05;3.60;;;30.20;35.50;;;;;;7710382;23;19908;-69
2022/05/17 10:20:29;;;;;;;9.80;2.95;;;30.20;35.50;;;;;;7682199;23;20017;-69
2022/05/17 10:23:39;;;;;;;10.60;3.50;;;30.30;35.50;;;;;;7683830;23;20155;-70
2022/05/17 10:26:44;;;;;;;8.25;3.13;;;30.40;35.10;;;;;;7685089;23;20016;-69
2022/05/17 10:29:51;;;;;;;10.48;3.28;;;30.50;34.70;;;;;;7684809;23;20016;-69
2022/05/17 10:32:59;;;;;;;5.05;3.03;;;30.60;34.30;;;;;;7659569;23;20095;-69
2022/05/17 10:36:05;;;;;;;6.90;3.00;;;30.70;34.10;;;;;;7660620;23;20008;-70
2022/05/17 10:39:24;;;;;;;9.85;3.17;;;30.70;33.90;;;;;;7710116;23;20013;-69
2022/05/17 10:42:27;;;;;;;9.82;3.08;;;30.70;33.60;;;;;;7683720;23;20012;-69
2022/05/17 10:45:35;;;;;;;7.00;2.60;;;30.80;33.70;;;;;;7711280;23;20051;-69
2022/05/17 10:49:20;;;;;;;15.88;3.60;;;30.80;33.60;;;;;;7685069;23;20028;-70
2022/05/17 10:52:36;;;;;;;9.50;3.75;;;30.90;33.60;;;;;;7463210;23;20086;-69
2022/05/17 10:55:42;;;;;;;8.07;2.97;;;31.00;33.60;;;;;;7464750;23;20128;-69
2022/05/17 10:59:13;;;;;;;11.55;3.35;;;31.60;33.10;;;;;;7487315;23;20015;-69
2022/05/17 11:02:38;;;;;;;12.80;3.50;;;32.40;32.00;;;;;;7479681;23;20095;-70
2022/05/17 11:05:57;;;;;;;11.48;3.80;;;33.40;31.00;;;;;;7474355;23;20461;-71
2022/05/17 11:09:04;;;;;;;16.15;3.33;;;34.30;30.10;;;;;;7486369;23;20023;-70
2022/05/17 11:12:11;;;;;;;16.63;3.25;;;34.80;29.50;;;;;;7488024;23;20015;-69
2022/05/17 11:15:26;;;;;;;6.80;3.38;;;35.30;29.00;;;;;;7463154;23;20082;-69
2022/05/17 11:18:30;;;;;;;6.65;3.10;;;35.70;28.60;;;;;;7477006;23;20031;-70
2022/05/17 11:21:40;;;;;;;9.70;3.25;;;36.10;28.20;;;;;;7428384;23;20020;-69
2022/05/17 11:25:03;;;;;;;9.15;3.35;;;36.20;27.80;;;;;;7470872;23;20070;-68
2022/05/17 11:28:15;;;;;;;7.72;3.45;;;36.20;27.70;;;;;;7671051;23;20032;-69
2022/05/17 11:31:48;;;;;;;6.57;2.85;;;36.60;27.70;;;;;;7667826;23;20031;-69
2022/05/17 11:34:50;;;;;;;16.30;3.80;;;36.90;27.50;;;;;;7628398;23;20018;-69
2022/05/17 11:37:52;;;;;;;6.97;2.67;;;37.20;27.40;;;;;;7631100;23;20018;-68
2022/05/17 11:40:56;;;;;;;8.82;3.08;;;37.40;27.20;;;;;;7629775;23;20316;-69
2022/05/17 11:44:11;;;;;;;6.43;3.05;;;37.50;27.00;;;;;;7630815;23;20120;-69
2022/05/17 11:47:33;;;;;;;9.73;3.60;;;37.50;27.00;;;;;;7632319;23;20100;-69
2022/05/17 11:50:33;;;;;;;11.85;3.08;;;37.50;26.90;;;;;;7634159;23;20028;-69
2022/05/17 11:53:47;;;;;;;8.75;2.78;;;37.60;26.90;;;;;;7633494;23;20014;-68
2022/05/17 11:56:48;;;;;;;21.92;4.32;;;37.50;26.50;;;;;;7634412;23;20024;-69
2022/05/17 11:59:57;;;;;;;12.50;3.10;;;37.50;26.40;;;;;;7632909;23;20018;-69
2022/05/17 12:03:00;;;;;;;5.32;3.17;;;37.50;26.50;;;;;;7634402;23;20023;-69
2022/05/17 12:06:01;;;;;;;10.52;2.83;;;37.70;26.50;;;;;;7634008;23;20014;-69
2022/05/17 12:09:05;;;;;;;11.02;3.35;;;38.10;26.10;;;;;;7634871;23;20017;-70
2022/05/17 12:12:30;;;;;;;7.18;2.92;;;38.40;25.80;;;;;;7634133;23;20044;-68
2022/05/17 12:15:53;;;;;;;8.18;2.80;;;38.70;25.60;;;;;;7640349;23;20037;-69
2022/05/17 12:19:01;;;;;;;11.07;3.10;;;39.00;25.20;;;;;;7609921;23;20477;-69
2022/05/17 12:22:20;;;;;;;13.40;2.83;;;39.30;25.00;;;;;;7682210;23;20049;-70
2022/05/17 12:25:34;;;;;;;8.95;2.75;;;39.60;24.60;;;;;;7667245;23;20013;-69
2022/05/17 12:28:46;;;;;;;9.63;2.85;;;40.00;24.10;;;;;;7670108;23;20017;-69
2022/05/17 12:31:47;;;;;;;4.10;2.50;;;40.30;24.20;;;;;;7669740;23;20093;-69
2022/05/17 12:34:53;;;;;;;9.88;2.80;;;40.50;23.60;;;;;;7643370;23;20009;-69
2022/05/17 12:37:56;;;;;;;9.32;3.30;;;40.70;23.30;;;;;;7671121;23;20024;-69
2022/05/17 12:44:24;;;;;;;6.30;2.60;;;41.00;22.90;;;;;;7630965;23;20033;-69
2022/05/17 12:47:32;;;;;;;6.57;2.47;;;41.30;22.60;;;;;;7636405;23;20017;-70
2022/05/17 12:50:45;;;;;;;9.45;2.88;;;41.70;22.00;;;;;;7668979;23;20040;-70
2022/05/17 12:53:50;;;;;;;9.13;2.80;;;42.10;21.60;;;;;;7670689;23;20087;-70
2022/05/17 12:56:51;;;;;;;8.52;2.78;;;42.60;21.30;;;;;;7670541;23;20039;-70
2022/05/17 13:00:06;;;;;;;6.00;2.22;;;42.90;20.70;;;;;;7646718;23;20021;-68
2022/05/17 13:03:19;;;;;;;7.65;2.78;;;43.20;20.40;;;;;;7669272;23;20323;-69
2022/05/17 13:06:20;;;;;;;7.90;2.50;;;43.40;20.70;;;;;;7670876;23;20033;-70
2022/05/17 13:09:24;;;;;;;9.07;2.90;;;43.80;20.00;;;;;;7672872;23;20091;-70
2022/05/17 13:12:28;;;;;;;8.02;2.95;;;44.30;20.00;;;;;;7672258;23;20023;-69
2022/05/17 13:15:29;;;;;;;11.27;3.58;;;44.90;19.60;;;;;;7673060;23;20075;-69
2022/05/17 13:18:47;;;;;;;9.40;2.50;;;45.20;19.40;;;;;;7682428;23;20180;-69
2022/05/17 13:21:51;;;;;;;10.07;2.70;;;45.40;19.10;;;;;;7708460;23;20020;-69
2022/05/17 13:25:01;;;;;;;4.68;2.25;;;45.90;19.00;;;;;;7709058;23;20012;-69
2022/05/17 13:28:02;;;;;;;8.40;2.72;;;46.50;18.60;;;;;;7682408;23;20013;-69
2022/05/17 13:31:14;;;;;;;5.82;2.60;;;47.20;18.10;;;;;;7708942;23;20012;-69
2022/05/17 13:34:17;;;;;;;10.60;2.30;;;47.60;17.50;;;;;;7657887;23;20028;-70
2022/05/17 13:37:24;;;;;;;6.65;2.55;;;47.80;17.30;;;;;;7709381;23;20027;-70
2022/05/17 13:40:44;;;;;;;11.35;3.47;;;48.20;17.00;;;;;;7710267;23;20096;-70
2022/05/17 13:43:44;;;;;;;7.60;2.92;;;48.60;17.00;;;;;;7710225;23;20078;-69
2022/05/17 13:46:48;;;;;;;7.38;2.40;;;49.00;15.90;;;;;;7684512;23;20012;-69
2022/05/17 13:49:49;;;;;;;12.98;2.80;;;49.20;15.80;;;;;;7684456;23;20099;-69
2022/05/17 13:52:56;;;;;;;4.55;2.13;;;49.60;15.60;;;;;;7670801;23;20087;-69
2022/05/17 13:55:57;;;;;;;4.07;2.20;;;49.70;15.60;;;;;;7673054;23;20103;-69
2022/05/17 13:59:01;;;;;;;5.65;2.35;;;50.10;15.50;;;;;;7672815;23;20131;-70
2022/05/17 14:02:13;;;;;;;7.28;2.40;;;50.40;15.20;;;;;;7648925;23;20028;-70
2022/05/17 14:05:52;;;;;;;10.02;2.20;;;50.40;14.90;;;;;;7673581;23;20025;-69
2022/05/17 14:12:21;;;;;;;6.72;2.28;;;50.30;14.80;;;;;;7674648;23;20021;-70
2022/05/17 14:15:22;;;;;;;4.70;2.10;;;50.20;14.80;;;;;;7684369;23;20016;-70
2022/05/17 14:18:25;;;;;;;9.90;2.17;;;50.40;14.80;;;;;;7672473;23;20040;-70
2022/05/17 14:21:28;;;;;;;4.72;1.77;;;50.50;14.60;;;;;;7608983;23;20318;-70
2022/05/17 14:24:29;;;;;;;7.18;2.17;;;50.80;14.50;;;;;;7636104;23;20095;-70
2022/05/17 14:27:30;;;;;;;4.65;2.20;;;51.00;14.30;;;;;;7638085;23;20021;-70
2022/05/17 14:30:32;;;;;;;11.55;2.08;;;51.10;13.80;;;;;;7648214;23;20021;-70
2022/05/17 14:33:33;;;;;;;8.52;2.35;;;51.10;13.50;;;;;;7623641;23;20047;-70
2022/05/17 14:36:34;;;;;;;7.55;2.53;;;50.80;13.50;;;;;;7648540;23;20025;-70
2022/05/17 14:39:35;;;;;;;6.85;2.05;;;50.50;13.60;;;;;;7613335;23;20060;-70
2022/05/17 14:42:36;;;;;;;5.25;1.67;;;50.50;13.60;;;;;;7673821;23;20056;-70
2022/05/17 14:45:37;;;;;;;5.65;1.75;;;50.40;13.20;;;;;;7647955;23;20017;-70
2022/05/17 14:48:39;;;;;;;8.80;1.98;;;49.90;13.60;;;;;;7648512;23;20067;-71
2022/05/17 14:51:42;;;;;;;5.30;1.73;;;49.50;13.20;;;;;;7623943;23;20024;-71
2022/05/17 14:54:42;;;;;;;3.13;1.58;;;48.70;13.50;;;;;;7674196;23;20031;-69
2022/05/17 14:57:43;;;;;;;4.55;1.63;;;47.30;14.10;;;;;;7611176;23;20017;-70
2022/05/17 15:00:44;;;;;;;7.93;1.50;;;45.80;14.60;;;;;;7648945;23;20032;-71
2022/05/17 15:03:52;;;;;;;4.75;2.40;;;44.50;15.40;;;;;;7673219;23;20033;-69
2022/05/17 15:06:57;;;;;;;8.98;1.70;;;43.30;15.90;;;;;;7646179;23;20309;-70
2022/05/17 15:10:06;;;;;;;5.22;1.75;;;42.20;16.60;;;;;;7673455;23;20024;-70
2022/05/17 15:13:06;;;;;;;5.57;2.08;;;41.20;17.30;;;;;;7646836;23;20072;-69
2022/05/17 15:16:14;;;;;;;5.78;1.70;;;40.50;18.00;;;;;;7647271;23;20243;-69
2022/05/17 15:19:17;;;;;;;5.72;2.15;;;40.30;18.30;;;;;;7646622;23;20045;-69
2022/05/17 15:22:18;;;;;;;5.53;2.05;;;41.20;18.10;;;;;;7673961;23;20086;-69
2022/05/17 15:25:21;;;;;;;12.77;2.80;;;42.30;17.70;;;;;;7673313;23;20044;-70
2022/05/17 15:28:22;;;;;;;4.63;2.30;;;43.30;17.30;;;;;;7622896;23;20017;-70
2022/05/17 15:31:25;;;;;;;4.28;2.03;;;44.10;16.80;;;;;;7673044;23;20012;-70
2022/05/17 15:34:26;;;;;;;7.60;2.25;;;44.80;16.50;;;;;;7647795;23;20332;-70
2022/05/17 15:37:26;;;;;;;3.88;2.22;;;45.30;16.40;;;;;;7671611;23;20013;-72
2022/05/17 15:40:28;;;;;;;5.22;2.03;;;45.60;16.30;;;;;;7672753;23;20484;-69
2022/05/17 15:43:31;;;;;;;3.38;1.98;;;45.80;16.10;;;;;;7646241;23;20036;-69
2022/05/17 15:53:19;;;;;;;12.60;2.55;;;45.70;16.50;;;;;;7671920;23;20144;-70
2022/05/17 15:56:21;;;;;;;17.15;2.40;;;45.70;16.50;;;;;;7672137;23;20039;-70
2022/05/17 15:59:23;;;;;;;8.80;2.97;;;45.80;16.40;;;;;;7647091;23;20095;-70
2022/05/17 16:02:24;;;;;;;4.90;2.38;;;45.80;16.40;;;;;;7622818;23;20071;-70
2022/05/17 16:05:25;;;;;;;11.43;2.78;;;45.60;16.40;;;;;;7647426;23;20013;-70
2022/05/17 16:08:26;;;;;;;6.50;2.75;;;45.50;16.60;;;;;;7643884;23;20018;-69
2022/05/17 16:14:46;;;;;;;8.75;2.15;;;45.00;16.80;;;;;;7673011;23;20013;-70
2022/05/17 16:17:54;;;;;;;6.18;2.20;;;44.80;17.10;;;;;;7672536;23;20012;-69
2022/05/17 16:20:55;;;;;;;4.13;2.05;;;44.80;17.10;;;;;;7707972;23;20044;-70
2022/05/17 16:24:00;;;;;;;6.82;2.92;;;44.70;17.10;;;;;;7708011;23;20013;-70
2022/05/17 16:27:01;;;;;;;10.32;2.50;;;44.60;17.10;;;;;;7709454;23;20005;-69